sensor_id;sensor_type;location;lat;lon;timestamp;P1;durP1;ratioP1;P2;durP2;ratioP2
48241;SDS011;34041;51.812;4.622;2024-02-04T00:02:26;25.10;;;9.37;;
48241;SDS011;34041;51.812;4.622;2024-02-04T00:05:26;33.30;;;10.47;;
48241;SDS011;34041;51.812;4.622;2024-02-04T00:08:27;31.75;;;10.25;;
48241;SDS011;34041;51.812;4.622;2024-02-04T00:11:27;30.10;;;11.48;;
48241;SDS011;34041;51.812;4.622;2024-02-04T00:14:27;32.88;;;10.75;;
48241;SDS011;34041;51.812;4.622;2024-02-04T00:17:28;31.97;;;10.73;;
48241;SDS011;34041;51.812;4.622;2024-02-04T00:20:31;27.38;;;11.52;;
48241;SDS011;34041;51.812;4.622;2024-02-04T00:23:32;32.63;;;10.82;;
48241;SDS011;34041;51.812;4.622;2024-02-04T00:26:32;42.67;;;13.40;;
48241;SDS011;34041;51.812;4.622;2024-02-04T00:29:33;39.05;;;12.88;;
48241;SDS011;34041;51.812;4.622;2024-02-04T00:32:33;44.40;;;11.93;;
48241;SDS011;34041;51.812;4.622;2024-02-04T00:35:33;37.00;;;12.45;;
48241;SDS011;34041;51.812;4.622;2024-02-04T00:38:34;35.67;;;13.38;;
48241;SDS011;34041;51.812;4.622;2024-02-04T00:41:34;36.40;;;11.00;;
48241;SDS011;34041;51.812;4.622;2024-02-04T00:44:34;29.15;;;11.38;;
48241;SDS011;34041;51.812;4.622;2024-02-04T00:47:35;34.28;;;12.85;;
48241;SDS011;34041;51.812;4.622;2024-02-04T00:50:35;35.33;;;11.88;;
48241;SDS011;34041;51.812;4.622;2024-02-04T00:53:38;33.03;;;10.02;;
48241;SDS011;34041;51.812;4.622;2024-02-04T00:56:38;33.40;;;11.88;;
48241;SDS011;34041;51.812;4.622;2024-02-04T00:59:39;30.08;;;13.32;;
48241;SDS011;34041;51.812;4.622;2024-02-04T01:02:39;31.53;;;13.63;;
48241;SDS011;34041;51.812;4.622;2024-02-04T01:05:39;35.17;;;11.75;;
48241;SDS011;34041;51.812;4.622;2024-02-04T01:08:40;24.93;;;11.50;;
48241;SDS011;34041;51.812;4.622;2024-02-04T01:11:40;26.27;;;10.93;;
48241;SDS011;34041;51.812;4.622;2024-02-04T01:14:40;25.67;;;12.63;;
48241;SDS011;34041;51.812;4.622;2024-02-04T01:17:40;28.53;;;12.90;;
48241;SDS011;34041;51.812;4.622;2024-02-04T01:20:40;29.47;;;10.83;;
48241;SDS011;34041;51.812;4.622;2024-02-04T01:23:41;27.98;;;10.50;;
48241;SDS011;34041;51.812;4.622;2024-02-04T01:26:41;32.83;;;10.80;;
48241;SDS011;34041;51.812;4.622;2024-02-04T01:29:41;26.27;;;11.30;;
48241;SDS011;34041;51.812;4.622;2024-02-04T01:32:41;35.53;;;12.13;;
48241;SDS011;34041;51.812;4.622;2024-02-04T01:35:42;35.13;;;11.23;;
48241;SDS011;34041;51.812;4.622;2024-02-04T01:38:42;30.45;;;10.73;;
48241;SDS011;34041;51.812;4.622;2024-02-04T01:41:42;26.63;;;11.37;;
48241;SDS011;34041;51.812;4.622;2024-02-04T01:44:45;35.55;;;10.77;;
48241;SDS011;34041;51.812;4.622;2024-02-04T01:47:45;41.97;;;10.13;;
48241;SDS011;34041;51.812;4.622;2024-02-04T01:50:45;31.50;;;10.07;;
48241;SDS011;34041;51.812;4.622;2024-02-04T01:53:47;22.63;;;10.18;;
48241;SDS011;34041;51.812;4.622;2024-02-04T01:56:52;28.58;;;9.75;;
48241;SDS011;34041;51.812;4.622;2024-02-04T01:59:52;37.80;;;10.63;;
48241;SDS011;34041;51.812;4.622;2024-02-04T02:02:54;28.52;;;10.85;;
48241;SDS011;34041;51.812;4.622;2024-02-04T02:05:56;37.22;;;11.57;;
48241;SDS011;34041;51.812;4.622;2024-02-04T02:08:56;26.88;;;11.05;;
48241;SDS011;34041;51.812;4.622;2024-02-04T02:15:14;30.90;;;11.32;;
48241;SDS011;34041;51.812;4.622;2024-02-04T02:18:16;22.98;;;8.98;;
48241;SDS011;34041;51.812;4.622;2024-02-04T02:27:24;20.50;;;8.10;;
48241;SDS011;34041;51.812;4.622;2024-02-04T02:30:24;24.70;;;8.52;;
48241;SDS011;34041;51.812;4.622;2024-02-04T02:33:24;25.00;;;7.47;;
48241;SDS011;34041;51.812;4.622;2024-02-04T02:36:25;22.60;;;8.10;;
48241;SDS011;34041;51.812;4.622;2024-02-04T02:39:33;22.23;;;8.27;;
48241;SDS011;34041;51.812;4.622;2024-02-04T02:42:34;20.73;;;7.38;;
48241;SDS011;34041;51.812;4.622;2024-02-04T02:45:36;21.95;;;7.10;;
48241;SDS011;34041;51.812;4.622;2024-02-04T02:48:37;18.27;;;7.00;;
48241;SDS011;34041;51.812;4.622;2024-02-04T02:51:37;21.20;;;6.53;;
48241;SDS011;34041;51.812;4.622;2024-02-04T02:54:38;20.87;;;8.27;;
48241;SDS011;34041;51.812;4.622;2024-02-04T02:57:38;20.45;;;7.63;;
48241;SDS011;34041;51.812;4.622;2024-02-04T03:00:38;21.50;;;7.30;;
48241;SDS011;34041;51.812;4.622;2024-02-04T03:03:38;28.08;;;8.55;;
48241;SDS011;34041;51.812;4.622;2024-02-04T03:06:39;20.98;;;7.55;;
48241;SDS011;34041;51.812;4.622;2024-02-04T03:09:39;31.30;;;9.33;;
48241;SDS011;34041;51.812;4.622;2024-02-04T03:12:39;18.40;;;7.87;;
48241;SDS011;34041;51.812;4.622;2024-02-04T03:15:40;17.47;;;7.50;;
48241;SDS011;34041;51.812;4.622;2024-02-04T03:18:41;29.92;;;9.35;;
48241;SDS011;34041;51.812;4.622;2024-02-04T03:21:42;30.55;;;8.02;;
48241;SDS011;34041;51.812;4.622;2024-02-04T03:24:42;28.47;;;8.37;;
48241;SDS011;34041;51.812;4.622;2024-02-04T03:27:42;23.45;;;8.60;;
48241;SDS011;34041;51.812;4.622;2024-02-04T03:30:42;24.20;;;9.07;;
48241;SDS011;34041;51.812;4.622;2024-02-04T03:33:43;18.37;;;7.97;;
48241;SDS011;34041;51.812;4.622;2024-02-04T03:36:43;25.00;;;10.50;;
48241;SDS011;34041;51.812;4.622;2024-02-04T03:39:43;21.07;;;9.17;;
48241;SDS011;34041;51.812;4.622;2024-02-04T03:42:43;17.00;;;9.10;;
48241;SDS011;34041;51.812;4.622;2024-02-04T03:45:43;21.23;;;8.13;;
48241;SDS011;34041;51.812;4.622;2024-02-04T03:48:44;23.02;;;8.05;;
48241;SDS011;34041;51.812;4.622;2024-02-04T03:51:44;19.10;;;7.10;;
48241;SDS011;34041;51.812;4.622;2024-02-04T03:54:44;20.60;;;7.90;;
48241;SDS011;34041;51.812;4.622;2024-02-04T03:57:44;25.10;;;8.30;;
48241;SDS011;34041;51.812;4.622;2024-02-04T04:00:45;21.05;;;8.27;;
48241;SDS011;34041;51.812;4.622;2024-02-04T04:03:45;21.83;;;8.63;;
48241;SDS011;34041;51.812;4.622;2024-02-04T04:06:45;19.97;;;8.47;;
48241;SDS011;34041;51.812;4.622;2024-02-04T04:09:46;23.33;;;9.18;;
48241;SDS011;34041;51.812;4.622;2024-02-04T04:12:46;23.40;;;8.03;;
48241;SDS011;34041;51.812;4.622;2024-02-04T04:15:46;21.60;;;8.07;;
48241;SDS011;34041;51.812;4.622;2024-02-04T04:18:47;21.52;;;9.02;;
48241;SDS011;34041;51.812;4.622;2024-02-04T04:21:47;25.43;;;8.20;;
48241;SDS011;34041;51.812;4.622;2024-02-04T04:24:47;19.13;;;7.72;;
48241;SDS011;34041;51.812;4.622;2024-02-04T04:27:47;22.90;;;9.07;;
48241;SDS011;34041;51.812;4.622;2024-02-04T04:30:48;31.35;;;7.82;;
48241;SDS011;34041;51.812;4.622;2024-02-04T04:33:48;22.77;;;8.13;;
48241;SDS011;34041;51.812;4.622;2024-02-04T04:36:48;23.38;;;9.68;;
48241;SDS011;34041;51.812;4.622;2024-02-04T04:39:48;22.65;;;7.40;;
48241;SDS011;34041;51.812;4.622;2024-02-04T04:42:48;23.23;;;7.97;;
48241;SDS011;34041;51.812;4.622;2024-02-04T04:45:49;23.60;;;8.05;;
48241;SDS011;34041;51.812;4.622;2024-02-04T04:48:49;20.20;;;7.37;;
48241;SDS011;34041;51.812;4.622;2024-02-04T04:51:49;20.30;;;7.47;;
48241;SDS011;34041;51.812;4.622;2024-02-04T04:54:49;25.23;;;9.80;;
48241;SDS011;34041;51.812;4.622;2024-02-04T04:57:50;20.90;;;8.48;;
48241;SDS011;34041;51.812;4.622;2024-02-04T05:00:52;21.15;;;9.18;;
48241;SDS011;34041;51.812;4.622;2024-02-04T05:03:52;24.13;;;7.90;;
48241;SDS011;34041;51.812;4.622;2024-02-04T05:06:52;30.93;;;11.93;;
48241;SDS011;34041;51.812;4.622;2024-02-04T05:09:52;22.33;;;8.82;;
48241;SDS011;34041;51.812;4.622;2024-02-04T05:12:53;20.83;;;7.53;;
48241;SDS011;34041;51.812;4.622;2024-02-04T05:15:53;28.03;;;9.63;;
48241;SDS011;34041;51.812;4.622;2024-02-04T05:18:53;21.40;;;8.13;;
48241;SDS011;34041;51.812;4.622;2024-02-04T05:21:53;18.30;;;8.27;;
48241;SDS011;34041;51.812;4.622;2024-02-04T05:24:54;14.82;;;7.57;;
48241;SDS011;34041;51.812;4.622;2024-02-04T05:27:54;18.42;;;8.10;;
48241;SDS011;34041;51.812;4.622;2024-02-04T05:30:54;19.40;;;9.57;;
48241;SDS011;34041;51.812;4.622;2024-02-04T05:33:55;18.13;;;8.20;;
48241;SDS011;34041;51.812;4.622;2024-02-04T05:36:55;22.13;;;9.98;;
48241;SDS011;34041;51.812;4.622;2024-02-04T05:39:56;19.07;;;8.70;;
48241;SDS011;34041;51.812;4.622;2024-02-04T05:42:56;17.13;;;7.65;;
48241;SDS011;34041;51.812;4.622;2024-02-04T05:45:56;17.95;;;8.25;;
48241;SDS011;34041;51.812;4.622;2024-02-04T05:48:56;22.30;;;7.47;;
48241;SDS011;34041;51.812;4.622;2024-02-04T05:51:57;24.77;;;8.00;;
48241;SDS011;34041;51.812;4.622;2024-02-04T05:54:57;23.10;;;8.30;;
48241;SDS011;34041;51.812;4.622;2024-02-04T05:57:57;21.90;;;8.37;;
48241;SDS011;34041;51.812;4.622;2024-02-04T06:00:57;18.67;;;7.33;;
48241;SDS011;34041;51.812;4.622;2024-02-04T06:03:57;15.53;;;7.03;;
48241;SDS011;34041;51.812;4.622;2024-02-04T06:06:58;16.43;;;8.37;;
48241;SDS011;34041;51.812;4.622;2024-02-04T06:09:58;21.23;;;6.57;;
48241;SDS011;34041;51.812;4.622;2024-02-04T06:13:00;15.65;;;8.48;;
48241;SDS011;34041;51.812;4.622;2024-02-04T06:16:00;19.30;;;6.53;;
48241;SDS011;34041;51.812;4.622;2024-02-04T06:19:00;21.97;;;8.03;;
48241;SDS011;34041;51.812;4.622;2024-02-04T06:22:01;16.90;;;7.07;;
48241;SDS011;34041;51.812;4.622;2024-02-04T06:25:02;19.50;;;7.22;;
48241;SDS011;34041;51.812;4.622;2024-02-04T06:28:02;17.13;;;6.72;;
48241;SDS011;34041;51.812;4.622;2024-02-04T06:31:02;23.75;;;7.32;;
48241;SDS011;34041;51.812;4.622;2024-02-04T06:34:03;18.08;;;7.93;;
48241;SDS011;34041;51.812;4.622;2024-02-04T06:37:03;23.50;;;7.63;;
48241;SDS011;34041;51.812;4.622;2024-02-04T06:40:03;22.37;;;7.03;;
48241;SDS011;34041;51.812;4.622;2024-02-04T06:43:04;20.50;;;7.78;;
48241;SDS011;34041;51.812;4.622;2024-02-04T06:46:04;17.90;;;6.63;;
48241;SDS011;34041;51.812;4.622;2024-02-04T06:49:05;16.13;;;8.13;;
48241;SDS011;34041;51.812;4.622;2024-02-04T06:52:05;17.52;;;7.05;;
48241;SDS011;34041;51.812;4.622;2024-02-04T06:55:05;20.02;;;7.97;;
48241;SDS011;34041;51.812;4.622;2024-02-04T06:58:05;19.58;;;6.78;;
48241;SDS011;34041;51.812;4.622;2024-02-04T07:01:06;14.82;;;6.25;;
48241;SDS011;34041;51.812;4.622;2024-02-04T07:04:06;18.47;;;7.07;;
48241;SDS011;34041;51.812;4.622;2024-02-04T07:07:06;17.75;;;6.00;;
48241;SDS011;34041;51.812;4.622;2024-02-04T07:10:07;14.60;;;5.55;;
48241;SDS011;34041;51.812;4.622;2024-02-04T07:13:07;12.73;;;5.95;;
48241;SDS011;34041;51.812;4.622;2024-02-04T07:16:08;17.83;;;6.47;;
48241;SDS011;34041;51.812;4.622;2024-02-04T07:19:08;16.52;;;5.40;;
48241;SDS011;34041;51.812;4.622;2024-02-04T07:22:09;11.23;;;5.03;;
48241;SDS011;34041;51.812;4.622;2024-02-04T07:25:09;15.52;;;5.93;;
48241;SDS011;34041;51.812;4.622;2024-02-04T07:28:09;19.35;;;5.95;;
48241;SDS011;34041;51.812;4.622;2024-02-04T07:31:10;16.42;;;5.07;;
48241;SDS011;34041;51.812;4.622;2024-02-04T07:34:10;11.77;;;5.03;;
48241;SDS011;34041;51.812;4.622;2024-02-04T07:37:11;12.02;;;4.60;;
48241;SDS011;34041;51.812;4.622;2024-02-04T07:40:11;16.45;;;5.53;;
48241;SDS011;34041;51.812;4.622;2024-02-04T07:43:11;13.55;;;4.88;;
48241;SDS011;34041;51.812;4.622;2024-02-04T07:46:12;14.63;;;5.22;;
48241;SDS011;34041;51.812;4.622;2024-02-04T07:49:12;7.88;;;3.78;;
48241;SDS011;34041;51.812;4.622;2024-02-04T07:52:12;20.63;;;4.97;;
48241;SDS011;34041;51.812;4.622;2024-02-04T07:55:12;13.65;;;4.05;;
48241;SDS011;34041;51.812;4.622;2024-02-04T07:58:13;7.72;;;4.13;;
48241;SDS011;34041;51.812;4.622;2024-02-04T08:01:13;9.97;;;4.50;;
48241;SDS011;34041;51.812;4.622;2024-02-04T08:04:13;8.75;;;3.88;;
48241;SDS011;34041;51.812;4.622;2024-02-04T08:07:15;10.32;;;4.25;;
48241;SDS011;34041;51.812;4.622;2024-02-04T08:10:17;8.15;;;3.47;;
48241;SDS011;34041;51.812;4.622;2024-02-04T08:13:17;12.50;;;4.22;;
48241;SDS011;34041;51.812;4.622;2024-02-04T08:16:17;14.07;;;4.20;;
48241;SDS011;34041;51.812;4.622;2024-02-04T08:19:18;11.80;;;5.35;;
48241;SDS011;34041;51.812;4.622;2024-02-04T08:22:18;9.20;;;3.08;;
48241;SDS011;34041;51.812;4.622;2024-02-04T08:25:19;12.30;;;2.95;;
48241;SDS011;34041;51.812;4.622;2024-02-04T08:28:19;8.18;;;3.53;;
48241;SDS011;34041;51.812;4.622;2024-02-04T08:31:19;7.97;;;3.22;;
48241;SDS011;34041;51.812;4.622;2024-02-04T08:34:20;9.13;;;3.03;;
48241;SDS011;34041;51.812;4.622;2024-02-04T08:37:23;9.88;;;2.67;;
48241;SDS011;34041;51.812;4.622;2024-02-04T08:40:24;11.20;;;3.57;;
48241;SDS011;34041;51.812;4.622;2024-02-04T08:43:24;6.27;;;2.73;;
48241;SDS011;34041;51.812;4.622;2024-02-04T08:46:24;7.03;;;2.53;;
48241;SDS011;34041;51.812;4.622;2024-02-04T08:49:24;11.53;;;3.33;;
48241;SDS011;34041;51.812;4.622;2024-02-04T08:52:25;9.23;;;2.55;;
48241;SDS011;34041;51.812;4.622;2024-02-04T08:55:25;10.52;;;3.55;;
48241;SDS011;34041;51.812;4.622;2024-02-04T08:58:25;18.63;;;3.33;;
48241;SDS011;34041;51.812;4.622;2024-02-04T09:01:25;7.80;;;2.90;;
48241;SDS011;34041;51.812;4.622;2024-02-04T09:04:26;10.98;;;3.55;;
48241;SDS011;34041;51.812;4.622;2024-02-04T09:07:26;8.63;;;3.20;;
48241;SDS011;34041;51.812;4.622;2024-02-04T09:10:26;7.53;;;2.97;;
48241;SDS011;34041;51.812;4.622;2024-02-04T09:13:26;14.02;;;3.05;;
48241;SDS011;34041;51.812;4.622;2024-02-04T09:16:27;7.53;;;2.35;;
48241;SDS011;34041;51.812;4.622;2024-02-04T09:19:28;13.80;;;3.63;;
48241;SDS011;34041;51.812;4.622;2024-02-04T09:22:28;8.50;;;2.55;;
48241;SDS011;34041;51.812;4.622;2024-02-04T09:25:28;13.00;;;3.03;;
48241;SDS011;34041;51.812;4.622;2024-02-04T09:28:28;7.60;;;2.77;;
48241;SDS011;34041;51.812;4.622;2024-02-04T09:31:29;11.00;;;4.00;;
48241;SDS011;34041;51.812;4.622;2024-02-04T09:34:29;11.63;;;3.00;;
48241;SDS011;34041;51.812;4.622;2024-02-04T09:37:30;14.73;;;3.80;;
48241;SDS011;34041;51.812;4.622;2024-02-04T09:40:30;10.55;;;3.42;;
48241;SDS011;34041;51.812;4.622;2024-02-04T09:43:33;14.82;;;3.80;;
48241;SDS011;34041;51.812;4.622;2024-02-04T09:46:35;10.32;;;3.28;;
48241;SDS011;34041;51.812;4.622;2024-02-04T09:49:35;9.55;;;2.88;;
48241;SDS011;34041;51.812;4.622;2024-02-04T09:52:37;12.68;;;3.33;;
48241;SDS011;34041;51.812;4.622;2024-02-04T09:55:39;14.20;;;2.95;;
48241;SDS011;34041;51.812;4.622;2024-02-04T09:58:39;10.65;;;2.90;;
48241;SDS011;34041;51.812;4.622;2024-02-04T10:01:40;10.48;;;2.90;;
48241;SDS011;34041;51.812;4.622;2024-02-04T10:04:41;13.77;;;2.80;;
48241;SDS011;34041;51.812;4.622;2024-02-04T10:07:41;8.38;;;3.22;;
48241;SDS011;34041;51.812;4.622;2024-02-04T10:10:42;12.23;;;2.88;;
48241;SDS011;34041;51.812;4.622;2024-02-04T10:13:49;16.77;;;3.67;;
48241;SDS011;34041;51.812;4.622;2024-02-04T10:16:49;7.95;;;3.17;;
48241;SDS011;34041;51.812;4.622;2024-02-04T10:19:49;11.98;;;4.15;;
48241;SDS011;34041;51.812;4.622;2024-02-04T10:22:50;14.77;;;3.07;;
48241;SDS011;34041;51.812;4.622;2024-02-04T10:25:57;11.83;;;2.57;;
48241;SDS011;34041;51.812;4.622;2024-02-04T10:28:57;11.75;;;2.97;;
48241;SDS011;34041;51.812;4.622;2024-02-04T10:31:57;8.48;;;3.20;;
48241;SDS011;34041;51.812;4.622;2024-02-04T10:34:58;10.38;;;3.97;;
48241;SDS011;34041;51.812;4.622;2024-02-04T10:37:59;9.55;;;2.55;;
48241;SDS011;34041;51.812;4.622;2024-02-04T10:41:00;10.50;;;2.50;;
48241;SDS011;34041;51.812;4.622;2024-02-04T10:44:03;25.02;;;3.60;;
48241;SDS011;34041;51.812;4.622;2024-02-04T10:47:05;12.38;;;2.70;;
48241;SDS011;34041;51.812;4.622;2024-02-04T10:50:07;11.88;;;2.78;;
48241;SDS011;34041;51.812;4.622;2024-02-04T10:53:08;13.07;;;2.85;;
48241;SDS011;34041;51.812;4.622;2024-02-04T10:59:15;9.82;;;2.22;;
48241;SDS011;34041;51.812;4.622;2024-02-04T11:02:20;9.77;;;2.40;;
48241;SDS011;34041;51.812;4.622;2024-02-04T11:05:21;12.20;;;3.22;;
48241;SDS011;34041;51.812;4.622;2024-02-04T11:08:21;8.18;;;2.72;;
48241;SDS011;34041;51.812;4.622;2024-02-04T11:11:21;9.85;;;2.08;;
48241;SDS011;34041;51.812;4.622;2024-02-04T11:14:24;14.20;;;2.70;;
48241;SDS011;34041;51.812;4.622;2024-02-04T11:17:34;11.60;;;4.30;;
48241;SDS011;34041;51.812;4.622;2024-02-04T11:20:53;5.60;;;2.13;;
48241;SDS011;34041;51.812;4.622;2024-02-04T11:26:56;13.90;;;4.40;;
48241;SDS011;34041;51.812;4.622;2024-02-04T11:29:57;9.80;;;2.05;;
48241;SDS011;34041;51.812;4.622;2024-02-04T11:32:59;9.05;;;2.95;;
48241;SDS011;34041;51.812;4.622;2024-02-04T11:39:00;9.63;;;3.47;;
48241;SDS011;34041;51.812;4.622;2024-02-04T11:42:01;12.82;;;3.95;;
48241;SDS011;34041;51.812;4.622;2024-02-04T11:45:13;13.10;;;4.47;;
48241;SDS011;34041;51.812;4.622;2024-02-04T11:48:14;8.85;;;2.65;;
48241;SDS011;34041;51.812;4.622;2024-02-04T11:51:14;14.45;;;6.57;;
48241;SDS011;34041;51.812;4.622;2024-02-04T11:54:15;14.40;;;3.35;;
48241;SDS011;34041;51.812;4.622;2024-02-04T11:57:16;20.02;;;3.60;;
48241;SDS011;34041;51.812;4.622;2024-02-04T12:00:16;17.15;;;2.75;;
48241;SDS011;34041;51.812;4.622;2024-02-04T12:03:17;14.70;;;3.53;;
48241;SDS011;34041;51.812;4.622;2024-02-04T12:06:17;17.00;;;3.08;;
48241;SDS011;34041;51.812;4.622;2024-02-04T12:09:18;11.07;;;3.38;;
48241;SDS011;34041;51.812;4.622;2024-02-04T12:12:18;13.63;;;3.08;;
48241;SDS011;34041;51.812;4.622;2024-02-04T12:15:19;17.08;;;4.45;;
48241;SDS011;34041;51.812;4.622;2024-02-04T12:18:20;18.00;;;4.03;;
48241;SDS011;34041;51.812;4.622;2024-02-04T12:21:20;16.15;;;3.75;;
48241;SDS011;34041;51.812;4.622;2024-02-04T12:24:21;16.90;;;3.63;;
48241;SDS011;34041;51.812;4.622;2024-02-04T12:27:21;15.52;;;4.38;;
48241;SDS011;34041;51.812;4.622;2024-02-04T12:30:21;13.35;;;4.57;;
48241;SDS011;34041;51.812;4.622;2024-02-04T12:33:22;11.02;;;3.00;;
48241;SDS011;34041;51.812;4.622;2024-02-04T12:36:22;13.82;;;4.30;;
48241;SDS011;34041;51.812;4.622;2024-02-04T12:39:22;14.00;;;2.95;;
48241;SDS011;34041;51.812;4.622;2024-02-04T12:42:23;14.57;;;3.03;;
48241;SDS011;34041;51.812;4.622;2024-02-04T12:45:23;8.65;;;2.80;;
48241;SDS011;34041;51.812;4.622;2024-02-04T12:48:24;13.40;;;3.08;;
48241;SDS011;34041;51.812;4.622;2024-02-04T12:51:28;9.73;;;3.05;;
48241;SDS011;34041;51.812;4.622;2024-02-04T12:54:29;18.65;;;4.07;;
48241;SDS011;34041;51.812;4.622;2024-02-04T12:57:29;14.48;;;3.90;;
48241;SDS011;34041;51.812;4.622;2024-02-04T13:00:29;24.10;;;4.10;;
48241;SDS011;34041;51.812;4.622;2024-02-04T13:03:30;15.27;;;3.53;;
48241;SDS011;34041;51.812;4.622;2024-02-04T13:06:31;12.55;;;3.20;;
48241;SDS011;34041;51.812;4.622;2024-02-04T13:09:31;9.35;;;3.70;;
48241;SDS011;34041;51.812;4.622;2024-02-04T13:12:31;8.77;;;2.65;;
48241;SDS011;34041;51.812;4.622;2024-02-04T13:18:37;12.77;;;3.30;;
48241;SDS011;34041;51.812;4.622;2024-02-04T13:21:37;9.67;;;2.63;;
48241;SDS011;34041;51.812;4.622;2024-02-04T13:24:37;9.40;;;2.67;;
48241;SDS011;34041;51.812;4.622;2024-02-04T13:27:39;13.15;;;4.15;;
48241;SDS011;34041;51.812;4.622;2024-02-04T13:30:40;8.85;;;2.88;;
48241;SDS011;34041;51.812;4.622;2024-02-04T13:33:40;11.10;;;4.03;;
48241;SDS011;34041;51.812;4.622;2024-02-04T13:36:41;7.65;;;2.58;;
48241;SDS011;34041;51.812;4.622;2024-02-04T13:39:41;13.93;;;3.33;;
48241;SDS011;34041;51.812;4.622;2024-02-04T13:42:41;11.90;;;3.25;;
48241;SDS011;34041;51.812;4.622;2024-02-04T13:45:42;12.93;;;2.60;;
48241;SDS011;34041;51.812;4.622;2024-02-04T13:48:42;8.15;;;2.90;;
48241;SDS011;34041;51.812;4.622;2024-02-04T13:51:42;15.95;;;3.25;;
48241;SDS011;34041;51.812;4.622;2024-02-04T13:54:42;12.55;;;4.47;;
48241;SDS011;34041;51.812;4.622;2024-02-04T13:57:43;13.27;;;3.47;;
48241;SDS011;34041;51.812;4.622;2024-02-04T14:00:43;14.05;;;3.22;;
48241;SDS011;34041;51.812;4.622;2024-02-04T14:03:43;10.65;;;2.33;;
48241;SDS011;34041;51.812;4.622;2024-02-04T14:06:44;9.40;;;4.20;;
48241;SDS011;34041;51.812;4.622;2024-02-04T14:09:44;12.50;;;3.60;;
48241;SDS011;34041;51.812;4.622;2024-02-04T14:12:44;8.60;;;2.20;;
48241;SDS011;34041;51.812;4.622;2024-02-04T14:15:45;14.30;;;3.15;;
48241;SDS011;34041;51.812;4.622;2024-02-04T14:18:45;9.90;;;2.92;;
48241;SDS011;34041;51.812;4.622;2024-02-04T14:21:46;10.57;;;3.65;;
48241;SDS011;34041;51.812;4.622;2024-02-04T14:24:46;15.40;;;3.83;;
48241;SDS011;34041;51.812;4.622;2024-02-04T14:27:47;10.38;;;2.80;;
48241;SDS011;34041;51.812;4.622;2024-02-04T14:30:47;10.87;;;2.50;;
48241;SDS011;34041;51.812;4.622;2024-02-04T14:33:47;13.23;;;4.28;;
48241;SDS011;34041;51.812;4.622;2024-02-04T14:36:47;13.57;;;3.17;;
48241;SDS011;34041;51.812;4.622;2024-02-04T14:39:48;8.77;;;3.77;;
48241;SDS011;34041;51.812;4.622;2024-02-04T14:42:49;9.82;;;4.05;;
48241;SDS011;34041;51.812;4.622;2024-02-04T14:45:49;15.83;;;5.13;;
48241;SDS011;34041;51.812;4.622;2024-02-04T14:48:49;13.80;;;5.30;;
48241;SDS011;34041;51.812;4.622;2024-02-04T14:51:50;14.38;;;4.35;;
48241;SDS011;34041;51.812;4.622;2024-02-04T14:54:50;17.60;;;3.55;;
48241;SDS011;34041;51.812;4.622;2024-02-04T14:57:50;12.30;;;4.22;;
48241;SDS011;34041;51.812;4.622;2024-02-04T15:00:50;14.85;;;4.03;;
48241;SDS011;34041;51.812;4.622;2024-02-04T15:03:51;11.70;;;3.58;;
48241;SDS011;34041;51.812;4.622;2024-02-04T15:06:51;13.10;;;4.03;;
48241;SDS011;34041;51.812;4.622;2024-02-04T15:09:51;22.90;;;3.97;;
48241;SDS011;34041;51.812;4.622;2024-02-04T15:12:53;15.60;;;4.47;;
48241;SDS011;34041;51.812;4.622;2024-02-04T15:15:57;10.95;;;3.47;;
48241;SDS011;34041;51.812;4.622;2024-02-04T15:18:57;11.93;;;4.80;;
48241;SDS011;34041;51.812;4.622;2024-02-04T15:21:58;9.95;;;4.28;;
48241;SDS011;34041;51.812;4.622;2024-02-04T15:24:58;14.90;;;3.75;;
48241;SDS011;34041;51.812;4.622;2024-02-04T15:27:59;11.80;;;4.05;;
48241;SDS011;34041;51.812;4.622;2024-02-04T15:30:59;20.70;;;4.32;;
48241;SDS011;34041;51.812;4.622;2024-02-04T15:34:00;10.32;;;3.22;;
48241;SDS011;34041;51.812;4.622;2024-02-04T15:37:00;13.93;;;4.55;;
48241;SDS011;34041;51.812;4.622;2024-02-04T15:40:01;9.55;;;3.95;;
48241;SDS011;34041;51.812;4.622;2024-02-04T15:43:01;16.58;;;4.50;;
48241;SDS011;34041;51.812;4.622;2024-02-04T15:46:02;13.73;;;3.90;;
48241;SDS011;34041;51.812;4.622;2024-02-04T15:49:05;12.20;;;4.07;;
48241;SDS011;34041;51.812;4.622;2024-02-04T15:52:10;25.15;;;5.30;;
48241;SDS011;34041;51.812;4.622;2024-02-04T15:55:10;23.45;;;5.32;;
48241;SDS011;34041;51.812;4.622;2024-02-04T15:58:12;19.17;;;5.05;;
48241;SDS011;34041;51.812;4.622;2024-02-04T16:01:16;14.68;;;4.07;;
48241;SDS011;34041;51.812;4.622;2024-02-04T16:04:17;18.73;;;5.00;;
48241;SDS011;34041;51.812;4.622;2024-02-04T16:07:18;20.33;;;5.72;;
48241;SDS011;34041;51.812;4.622;2024-02-04T16:10:20;17.30;;;5.15;;
48241;SDS011;34041;51.812;4.622;2024-02-04T16:13:24;14.00;;;4.23;;
48241;SDS011;34041;51.812;4.622;2024-02-04T16:16:29;13.57;;;3.42;;
48241;SDS011;34041;51.812;4.622;2024-02-04T16:19:33;21.45;;;5.25;;
48241;SDS011;34041;51.812;4.622;2024-02-04T16:22:34;12.20;;;4.07;;
48241;SDS011;34041;51.812;4.622;2024-02-04T16:25:34;21.83;;;4.93;;
48241;SDS011;34041;51.812;4.622;2024-02-04T16:28:34;20.13;;;4.80;;
48241;SDS011;34041;51.812;4.622;2024-02-04T16:31:35;13.05;;;4.60;;
48241;SDS011;34041;51.812;4.622;2024-02-04T16:34:35;17.77;;;4.40;;
48241;SDS011;34041;51.812;4.622;2024-02-04T16:37:36;13.98;;;4.32;;
48241;SDS011;34041;51.812;4.622;2024-02-04T16:40:37;17.50;;;4.18;;
48241;SDS011;34041;51.812;4.622;2024-02-04T16:43:40;15.20;;;4.78;;
48241;SDS011;34041;51.812;4.622;2024-02-04T16:46:40;22.30;;;4.57;;
48241;SDS011;34041;51.812;4.622;2024-02-04T16:49:40;19.40;;;4.07;;
48241;SDS011;34041;51.812;4.622;2024-02-04T16:52:41;14.98;;;4.25;;
48241;SDS011;34041;51.812;4.622;2024-02-04T16:55:41;13.57;;;5.20;;
48241;SDS011;34041;51.812;4.622;2024-02-04T16:58:41;24.60;;;5.10;;
48241;SDS011;34041;51.812;4.622;2024-02-04T17:01:41;20.65;;;4.40;;
48241;SDS011;34041;51.812;4.622;2024-02-04T17:04:42;13.23;;;3.97;;
48241;SDS011;34041;51.812;4.622;2024-02-04T17:07:43;10.73;;;4.18;;
48241;SDS011;34041;51.812;4.622;2024-02-04T17:10:43;12.82;;;4.10;;
48241;SDS011;34041;51.812;4.622;2024-02-04T17:13:44;17.88;;;4.60;;
48241;SDS011;34041;51.812;4.622;2024-02-04T17:23:07;14.23;;;4.78;;
48241;SDS011;34041;51.812;4.622;2024-02-04T17:26:07;16.30;;;4.15;;
48241;SDS011;34041;51.812;4.622;2024-02-04T17:29:09;10.88;;;3.33;;
48241;SDS011;34041;51.812;4.622;2024-02-04T17:32:12;9.90;;;3.55;;
48241;SDS011;34041;51.812;4.622;2024-02-04T17:35:13;12.43;;;4.50;;
48241;SDS011;34041;51.812;4.622;2024-02-04T17:38:19;16.17;;;3.45;;
48241;SDS011;34041;51.812;4.622;2024-02-04T17:41:19;14.68;;;5.35;;
48241;SDS011;34041;51.812;4.622;2024-02-04T17:44:20;17.67;;;3.17;;
48241;SDS011;34041;51.812;4.622;2024-02-04T17:47:21;12.10;;;4.47;;
48241;SDS011;34041;51.812;4.622;2024-02-04T17:50:25;13.98;;;3.92;;
48241;SDS011;34041;51.812;4.622;2024-02-04T17:53:26;10.73;;;3.38;;
48241;SDS011;34041;51.812;4.622;2024-02-04T17:56:26;16.38;;;3.20;;
48241;SDS011;34041;51.812;4.622;2024-02-04T17:59:27;9.30;;;5.22;;
48241;SDS011;34041;51.812;4.622;2024-02-04T18:02:28;12.27;;;2.85;;
48241;SDS011;34041;51.812;4.622;2024-02-04T18:05:30;13.45;;;4.38;;
48241;SDS011;34041;51.812;4.622;2024-02-04T18:08:31;18.17;;;3.92;;
48241;SDS011;34041;51.812;4.622;2024-02-04T18:11:31;8.87;;;2.97;;
48241;SDS011;34041;51.812;4.622;2024-02-04T18:14:32;19.10;;;3.75;;
48241;SDS011;34041;51.812;4.622;2024-02-04T18:17:32;18.83;;;3.33;;
48241;SDS011;34041;51.812;4.622;2024-02-04T18:20:34;14.13;;;3.50;;
48241;SDS011;34041;51.812;4.622;2024-02-04T18:23:34;17.17;;;5.07;;